sensor_id;sensor_type;location;lat;lon;timestamp;P1;durP1;ratioP1;P2;durP2;ratioP2
15340;SDS011;7770;52.158;5.372;2022-08-01T00:02:32;6.77;;;6.17;;
15340;SDS011;7770;52.158;5.372;2022-08-01T00:05:18;7.27;;;6.43;;
15340;SDS011;7770;52.158;5.372;2022-08-01T00:08:04;7.30;;;6.27;;
15340;SDS011;7770;52.158;5.372;2022-08-01T00:10:50;6.53;;;5.93;;
15340;SDS011;7770;52.158;5.372;2022-08-01T00:13:36;6.50;;;5.90;;
15340;SDS011;7770;52.158;5.372;2022-08-01T00:16:22;6.67;;;5.97;;
15340;SDS011;7770;52.158;5.372;2022-08-01T00:19:07;7.30;;;5.97;;
15340;SDS011;7770;52.158;5.372;2022-08-01T00:21:54;7.40;;;5.93;;
15340;SDS011;7770;52.158;5.372;2022-08-01T00:24:40;6.70;;;6.00;;
15340;SDS011;7770;52.158;5.372;2022-08-01T00:27:26;6.63;;;6.03;;
15340;SDS011;7770;52.158;5.372;2022-08-01T00:30:12;6.40;;;5.80;;
15340;SDS011;7770;52.158;5.372;2022-08-01T00:32:58;6.93;;;6.20;;
15340;SDS011;7770;52.158;5.372;2022-08-01T00:35:44;8.43;;;6.30;;
15340;SDS011;7770;52.158;5.372;2022-08-01T00:38:30;7.50;;;6.10;;
15340;SDS011;7770;52.158;5.372;2022-08-01T00:41:17;6.67;;;6.07;;
15340;SDS011;7770;52.158;5.372;2022-08-01T00:44:06;8.17;;;7.10;;
15340;SDS011;7770;52.158;5.372;2022-08-01T00:46:52;7.03;;;6.30;;
15340;SDS011;7770;52.158;5.372;2022-08-01T00:49:38;7.47;;;6.73;;
15340;SDS011;7770;52.158;5.372;2022-08-01T00:52:24;7.83;;;7.03;;
15340;SDS011;7770;52.158;5.372;2022-08-01T00:55:10;9.33;;;7.10;;
15340;SDS011;7770;52.158;5.372;2022-08-01T00:57:58;8.30;;;7.50;;
15340;SDS011;7770;52.158;5.372;2022-08-01T01:00:45;8.60;;;7.57;;
15340;SDS011;7770;52.158;5.372;2022-08-01T01:03:31;8.37;;;7.57;;
15340;SDS011;7770;52.158;5.372;2022-08-01T01:09:44;10.90;;;7.10;;
15340;SDS011;7770;52.158;5.372;2022-08-01T01:12:42;8.60;;;7.70;;
15340;SDS011;7770;52.158;5.372;2022-08-01T01:15:40;8.87;;;7.53;;
15340;SDS011;7770;52.158;5.372;2022-08-01T01:18:45;7.90;;;7.10;;
15340;SDS011;7770;52.158;5.372;2022-08-01T01:21:47;7.93;;;7.13;;
15340;SDS011;7770;52.158;5.372;2022-08-01T01:24:55;10.30;;;7.03;;
15340;SDS011;7770;52.158;5.372;2022-08-01T01:31:00;8.90;;;8.00;;
15340;SDS011;7770;52.158;5.372;2022-08-01T01:33:50;8.97;;;7.67;;
15340;SDS011;7770;52.158;5.372;2022-08-01T01:36:39;8.87;;;7.67;;
15340;SDS011;7770;52.158;5.372;2022-08-01T01:39:26;11.33;;;8.93;;
15340;SDS011;7770;52.158;5.372;2022-08-01T01:42:15;9.43;;;8.30;;
15340;SDS011;7770;52.158;5.372;2022-08-01T01:45:03;9.87;;;8.87;;
15340;SDS011;7770;52.158;5.372;2022-08-01T01:47:50;9.60;;;7.97;;
15340;SDS011;7770;52.158;5.372;2022-08-01T01:50:39;9.67;;;8.67;;
15340;SDS011;7770;52.158;5.372;2022-08-01T01:53:28;9.97;;;8.57;;
15340;SDS011;7770;52.158;5.372;2022-08-01T01:56:17;11.23;;;8.40;;
15340;SDS011;7770;52.158;5.372;2022-08-01T01:59:05;10.53;;;8.50;;
15340;SDS011;7770;52.158;5.372;2022-08-01T02:01:52;10.10;;;8.37;;
15340;SDS011;7770;52.158;5.372;2022-08-01T02:04:40;10.97;;;9.13;;
15340;SDS011;7770;52.158;5.372;2022-08-01T02:07:29;10.43;;;8.97;;
15340;SDS011;7770;52.158;5.372;2022-08-01T02:10:17;10.03;;;8.73;;
15340;SDS011;7770;52.158;5.372;2022-08-01T02:13:04;10.13;;;8.93;;
15340;SDS011;7770;52.158;5.372;2022-08-01T02:15:52;11.80;;;9.57;;
15340;SDS011;7770;52.158;5.372;2022-08-01T02:18:38;10.10;;;8.60;;
15340;SDS011;7770;52.158;5.372;2022-08-01T02:21:26;10.13;;;8.83;;
15340;SDS011;7770;52.158;5.372;2022-08-01T02:24:33;11.07;;;9.47;;
15340;SDS011;7770;52.158;5.372;2022-08-01T02:27:34;9.87;;;8.50;;
15340;SDS011;7770;52.158;5.372;2022-08-01T02:30:29;10.90;;;9.33;;
15340;SDS011;7770;52.158;5.372;2022-08-01T02:33:24;9.63;;;8.40;;
15340;SDS011;7770;52.158;5.372;2022-08-01T02:36:23;10.10;;;9.00;;
15340;SDS011;7770;52.158;5.372;2022-08-01T02:39:13;11.10;;;9.70;;
15340;SDS011;7770;52.158;5.372;2022-08-01T02:42:05;11.27;;;8.87;;
15340;SDS011;7770;52.158;5.372;2022-08-01T02:44:53;10.57;;;9.40;;
15340;SDS011;7770;52.158;5.372;2022-08-01T02:47:40;11.60;;;9.20;;
15340;SDS011;7770;52.158;5.372;2022-08-01T02:50:28;10.87;;;9.20;;
15340;SDS011;7770;52.158;5.372;2022-08-01T02:53:18;11.23;;;9.80;;
15340;SDS011;7770;52.158;5.372;2022-08-01T02:56:06;10.90;;;9.80;;
15340;SDS011;7770;52.158;5.372;2022-08-01T02:58:54;10.83;;;9.73;;
15340;SDS011;7770;52.158;5.372;2022-08-01T03:01:40;11.30;;;10.03;;
15340;SDS011;7770;52.158;5.372;2022-08-01T03:04:28;11.07;;;9.80;;
15340;SDS011;7770;52.158;5.372;2022-08-01T03:07:18;12.73;;;10.57;;
15340;SDS011;7770;52.158;5.372;2022-08-01T03:10:06;11.77;;;10.23;;
15340;SDS011;7770;52.158;5.372;2022-08-01T03:12:53;10.83;;;9.73;;
15340;SDS011;7770;52.158;5.372;2022-08-01T03:15:43;14.63;;;10.33;;
15340;SDS011;7770;52.158;5.372;2022-08-01T03:18:29;11.50;;;9.17;;
15340;SDS011;7770;52.158;5.372;2022-08-01T03:21:16;10.40;;;9.30;;
15340;SDS011;7770;52.158;5.372;2022-08-01T03:24:06;10.20;;;9.20;;
15340;SDS011;7770;52.158;5.372;2022-08-01T03:26:53;10.03;;;9.03;;
15340;SDS011;7770;52.158;5.372;2022-08-01T03:29:42;10.33;;;9.30;;
15340;SDS011;7770;52.158;5.372;2022-08-01T03:32:30;11.30;;;9.37;;
15340;SDS011;7770;52.158;5.372;2022-08-01T03:35:17;10.17;;;9.17;;
15340;SDS011;7770;52.158;5.372;2022-08-01T03:38:03;9.57;;;8.57;;
15340;SDS011;7770;52.158;5.372;2022-08-01T03:40:56;9.87;;;8.87;;
15340;SDS011;7770;52.158;5.372;2022-08-01T03:43:50;9.53;;;8.63;;
15340;SDS011;7770;52.158;5.372;2022-08-01T03:49:32;10.83;;;9.33;;
15340;SDS011;7770;52.158;5.372;2022-08-01T03:52:21;9.50;;;8.60;;
15340;SDS011;7770;52.158;5.372;2022-08-01T03:55:08;10.40;;;9.40;;
15340;SDS011;7770;52.158;5.372;2022-08-01T03:57:56;10.33;;;9.33;;
15340;SDS011;7770;52.158;5.372;2022-08-01T04:00:44;13.00;;;9.93;;
15340;SDS011;7770;52.158;5.372;2022-08-01T04:03:31;11.03;;;9.80;;
15340;SDS011;7770;52.158;5.372;2022-08-01T04:06:18;11.33;;;10.07;;
15340;SDS011;7770;52.158;5.372;2022-08-01T04:09:04;13.27;;;10.37;;
15340;SDS011;7770;52.158;5.372;2022-08-01T04:11:53;11.53;;;10.20;;
15340;SDS011;7770;52.158;5.372;2022-08-01T04:14:39;13.70;;;10.87;;
15340;SDS011;7770;52.158;5.372;2022-08-01T04:17:25;12.90;;;11.60;;
15340;SDS011;7770;52.158;5.372;2022-08-01T04:20:11;12.67;;;10.73;;
15340;SDS011;7770;52.158;5.372;2022-08-01T04:22:57;11.97;;;9.87;;
15340;SDS011;7770;52.158;5.372;2022-08-01T04:25:43;14.07;;;10.40;;
15340;SDS011;7770;52.158;5.372;2022-08-01T04:28:34;10.80;;;9.77;;
15340;SDS011;7770;52.158;5.372;2022-08-01T04:31:22;11.57;;;10.30;;
15340;SDS011;7770;52.158;5.372;2022-08-01T04:34:11;9.70;;;8.70;;
15340;SDS011;7770;52.158;5.372;2022-08-01T04:37:01;8.37;;;7.47;;
15340;SDS011;7770;52.158;5.372;2022-08-01T04:39:48;9.47;;;7.17;;
15340;SDS011;7770;52.158;5.372;2022-08-01T04:42:38;5.90;;;5.37;;
15340;SDS011;7770;52.158;5.372;2022-08-01T04:45:24;6.07;;;5.57;;
15340;SDS011;7770;52.158;5.372;2022-08-01T04:48:11;5.07;;;4.67;;
15340;SDS011;7770;52.158;5.372;2022-08-01T04:51:00;6.27;;;4.67;;
15340;SDS011;7770;52.158;5.372;2022-08-01T04:53:47;6.93;;;4.83;;
15340;SDS011;7770;52.158;5.372;2022-08-01T04:56:34;4.73;;;4.20;;
15340;SDS011;7770;52.158;5.372;2022-08-01T04:59:20;4.77;;;4.37;;
15340;SDS011;7770;52.158;5.372;2022-08-01T05:02:24;4.43;;;4.03;;
15340;SDS011;7770;52.158;5.372;2022-08-01T05:05:13;4.90;;;4.37;;
15340;SDS011;7770;52.158;5.372;2022-08-01T05:08:00;4.70;;;4.03;;
15340;SDS011;7770;52.158;5.372;2022-08-01T05:10:46;4.50;;;4.07;;
15340;SDS011;7770;52.158;5.372;2022-08-01T05:13:32;4.40;;;4.00;;
15340;SDS011;7770;52.158;5.372;2022-08-01T05:16:18;4.20;;;3.87;;
15340;SDS011;7770;52.158;5.372;2022-08-01T05:19:04;4.60;;;4.20;;
15340;SDS011;7770;52.158;5.372;2022-08-01T05:21:50;5.53;;;5.03;;
15340;SDS011;7770;52.158;5.372;2022-08-01T05:24:37;5.63;;;5.07;;
15340;SDS011;7770;52.158;5.372;2022-08-01T05:27:25;6.87;;;5.70;;
15340;SDS011;7770;52.158;5.372;2022-08-01T05:30:11;6.13;;;5.53;;
15340;SDS011;7770;52.158;5.372;2022-08-01T05:32:57;7.53;;;5.67;;
15340;SDS011;7770;52.158;5.372;2022-08-01T05:35:43;7.33;;;5.77;;
15340;SDS011;7770;52.158;5.372;2022-08-01T05:38:29;6.73;;;6.13;;
15340;SDS011;7770;52.158;5.372;2022-08-01T05:41:15;6.40;;;5.80;;
